sensor_id;sensor_type;location;lat;lon;timestamp;pressure;altitude;pressure_sealevel;temperature;humidity
11440;BME280;5776;51.814;4.510;2023-05-02T00:00:13;102172.31;;;12.53;100.00
11440;BME280;5776;51.814;4.510;2023-05-02T00:02:39;102167.97;;;12.52;100.00
11440;BME280;5776;51.814;4.510;2023-05-02T00:05:05;102181.03;;;12.50;100.00
11440;BME280;5776;51.814;4.510;2023-05-02T00:07:32;102175.03;;;12.48;100.00
11440;BME280;5776;51.814;4.510;2023-05-02T00:09:58;102176.13;;;12.47;100.00
11440;BME280;5776;51.814;4.510;2023-05-02T00:12:27;102174.47;;;12.46;100.00
11440;BME280;5776;51.814;4.510;2023-05-02T00:14:53;102173.91;;;12.44;100.00
11440;BME280;5776;51.814;4.510;2023-05-02T00:17:19;102171.72;;;12.41;100.00
11440;BME280;5776;51.814;4.510;2023-05-02T00:19:46;102161.94;;;12.40;100.00
11440;BME280;5776;51.814;4.510;2023-05-02T00:22:11;102165.72;;;12.39;100.00
11440;BME280;5776;51.814;4.510;2023-05-02T00:24:37;102165.19;;;12.37;100.00
11440;BME280;5776;51.814;4.510;2023-05-02T00:27:03;102171.72;;;12.36;100.00
11440;BME280;5776;51.814;4.510;2023-05-02T00:29:30;102163.53;;;12.36;100.00
11440;BME280;5776;51.814;4.510;2023-05-02T00:31:56;102161.91;;;12.35;100.00
11440;BME280;5776;51.814;4.510;2023-05-02T00:34:27;102165.72;;;12.33;100.00
11440;BME280;5776;51.814;4.510;2023-05-02T00:36:53;102166.81;;;12.32;100.00
11440;BME280;5776;51.814;4.510;2023-05-02T00:39:19;102167.06;;;12.31;100.00
11440;BME280;5776;51.814;4.510;2023-05-02T00:41:45;102168.97;;;12.30;100.00
11440;BME280;5776;51.814;4.510;2023-05-02T00:44:10;102162.97;;;12.28;100.00
11440;BME280;5776;51.814;4.510;2023-05-02T00:46:36;102161.34;;;12.27;100.00
11440;BME280;5776;51.814;4.510;2023-05-02T00:49:02;102158.06;;;12.25;100.00
11440;BME280;5776;51.814;4.510;2023-05-02T00:51:28;102165.16;;;12.26;100.00
11440;BME280;5776;51.814;4.510;2023-05-02T00:53:56;102165.69;;;12.23;100.00
11440;BME280;5776;51.814;4.510;2023-05-02T00:56:22;102174.94;;;12.22;100.00
11440;BME280;5776;51.814;4.510;2023-05-02T00:58:48;102162.94;;;12.23;100.00
11440;BME280;5776;51.814;4.510;2023-05-02T01:01:25;102173.28;;;12.21;100.00
11440;BME280;5776;51.814;4.510;2023-05-02T01:04:03;102165.41;;;12.20;100.00
11440;BME280;5776;51.814;4.510;2023-05-02T01:12:14;102154.75;;;12.18;100.00
11440;BME280;5776;51.814;4.510;2023-05-02T01:14:44;102164.59;;;12.19;100.00
11440;BME280;5776;51.814;4.510;2023-05-02T01:17:13;102173.00;;;12.18;100.00
11440;BME280;5776;51.814;4.510;2023-05-02T01:19:47;102175.19;;;12.16;100.00
11440;BME280;5776;51.814;4.510;2023-05-02T01:22:17;102176.84;;;12.17;100.00
11440;BME280;5776;51.814;4.510;2023-05-02T01:30:13;102191.28;;;12.22;100.00
11440;BME280;5776;51.814;4.510;2023-05-02T01:32:44;102191.84;;;12.24;100.00
11440;BME280;5776;51.814;4.510;2023-05-02T01:35:15;102195.63;;;12.23;100.00
11440;BME280;5776;51.814;4.510;2023-05-02T01:37:44;102191.84;;;12.24;100.00
11440;BME280;5776;51.814;4.510;2023-05-02T01:40:13;102195.63;;;12.23;100.00
11440;BME280;5776;51.814;4.510;2023-05-02T01:42:42;102200.81;;;12.20;100.00
11440;BME280;5776;51.814;4.510;2023-05-02T01:45:10;102197.00;;;12.21;100.00
11440;BME280;5776;51.814;4.510;2023-05-02T01:47:38;102200.53;;;12.21;100.00
11440;BME280;5776;51.814;4.510;2023-05-02T01:50:06;102212.53;;;12.20;100.00
11440;BME280;5776;51.814;4.510;2023-05-02T01:52:36;102211.16;;;12.18;100.00
11440;BME280;5776;51.814;4.510;2023-05-02T01:55:05;102228.59;;;12.17;100.00
11440;BME280;5776;51.814;4.510;2023-05-02T01:57:35;102230.47;;;12.16;100.00
11440;BME280;5776;51.814;4.510;2023-05-02T02:00:04;102235.09;;;12.16;100.00
11440;BME280;5776;51.814;4.510;2023-05-02T02:02:33;102239.72;;;12.15;100.00
11440;BME280;5776;51.814;4.510;2023-05-02T02:05:01;102242.44;;;12.15;100.00
11440;BME280;5776;51.814;4.510;2023-05-02T02:07:29;102241.34;;;12.11;100.00
11440;BME280;5776;51.814;4.510;2023-05-02T02:09:55;102238.59;;;12.11;100.00
11440;BME280;5776;51.814;4.510;2023-05-02T02:15:05;102239.69;;;12.10;100.00
11440;BME280;5776;51.814;4.510;2023-05-02T02:17:39;102242.19;;;12.12;100.00
11440;BME280;5776;51.814;4.510;2023-05-02T02:20:09;102245.97;;;12.10;100.00
11440;BME280;5776;51.814;4.510;2023-05-02T02:22:38;102255.47;;;12.08;100.00
11440;BME280;5776;51.814;4.510;2023-05-02T02:25:10;102251.69;;;12.09;100.00
11440;BME280;5776;51.814;4.510;2023-05-02T02:27:36;102253.56;;;12.08;100.00
11440;BME280;5776;51.814;4.510;2023-05-02T02:30:04;102261.75;;;12.08;100.00
11440;BME280;5776;51.814;4.510;2023-05-02T02:32:30;102255.47;;;12.08;100.00
11440;BME280;5776;51.814;4.510;2023-05-02T02:34:56;102253.03;;;12.06;100.00
11440;BME280;5776;51.814;4.510;2023-05-02T02:37:32;102258.50;;;12.06;100.00
11440;BME280;5776;51.814;4.510;2023-05-02T02:40:38;102260.38;;;12.06;100.00
11440;BME280;5776;51.814;4.510;2023-05-02T02:48:44;102275.84;;;12.00;100.00
11440;BME280;5776;51.814;4.510;2023-05-02T02:51:24;102269.06;;;12.03;100.00
11440;BME280;5776;51.814;4.510;2023-05-02T02:53:59;102271.22;;;12.01;100.00
11440;BME280;5776;51.814;4.510;2023-05-02T02:56:45;102275.03;;;12.00;100.00
11440;BME280;5776;51.814;4.510;2023-05-02T02:59:39;102271.22;;;12.01;100.00
11440;BME280;5776;51.814;4.510;2023-05-02T03:02:08;102274.22;;;11.99;100.00
11440;BME280;5776;51.814;4.510;2023-05-02T03:04:38;102283.47;;;11.98;100.00
11440;BME280;5776;51.814;4.510;2023-05-02T03:07:07;102280.50;;;12.00;100.00
11440;BME280;5776;51.814;4.510;2023-05-02T03:09:43;102278.03;;;11.98;100.00
11440;BME280;5776;51.814;4.510;2023-05-02T03:12:10;102284.25;;;11.94;100.00
11440;BME280;5776;51.814;4.510;2023-05-02T03:14:36;102283.19;;;11.95;100.00
11440;BME280;5776;51.814;4.510;2023-05-02T03:17:03;102291.34;;;11.95;100.00
11440;BME280;5776;51.814;4.510;2023-05-02T03:19:28;102301.44;;;11.94;100.00
11440;BME280;5776;51.814;4.510;2023-05-02T03:21:55;102303.59;;;11.92;100.00
11440;BME280;5776;51.814;4.510;2023-05-02T03:24:21;102310.94;;;11.92;100.00
11440;BME280;5776;51.814;4.510;2023-05-02T03:26:47;102310.38;;;11.89;100.00
11440;BME280;5776;51.814;4.510;2023-05-02T03:29:14;102314.16;;;11.88;100.00
11440;BME280;5776;51.814;4.510;2023-05-02T03:31:40;102317.97;;;11.87;100.00
11440;BME280;5776;51.814;4.510;2023-05-02T03:34:06;102316.56;;;11.85;100.00
11440;BME280;5776;51.814;4.510;2023-05-02T03:36:32;102326.63;;;11.84;100.00
11440;BME280;5776;51.814;4.510;2023-05-02T03:38:58;102327.44;;;11.85;100.00
11440;BME280;5776;51.814;4.510;2023-05-02T03:41:23;102336.72;;;11.84;100.00
11440;BME280;5776;51.814;4.510;2023-05-02T03:43:50;102339.69;;;11.82;100.00
11440;BME280;5776;51.814;4.510;2023-05-02T03:46:16;102345.13;;;11.82;99.92
11440;BME280;5776;51.814;4.510;2023-05-02T03:48:42;102347.59;;;11.84;99.67
11440;BME280;5776;51.814;4.510;2023-05-02T03:51:10;102334.25;;;11.82;99.04
11440;BME280;5776;51.814;4.510;2023-05-02T03:53:36;102339.41;;;11.79;99.56
11440;BME280;5776;51.814;4.510;2023-05-02T03:56:02;102348.91;;;11.76;98.76
11440;BME280;5776;51.814;4.510;2023-05-02T03:58:28;102350.78;;;11.76;99.09
11440;BME280;5776;51.814;4.510;2023-05-02T04:00:54;102351.88;;;11.75;99.14
11440;BME280;5776;51.814;4.510;2023-05-02T04:03:20;102359.22;;;11.74;99.41
11440;BME280;5776;51.814;4.510;2023-05-02T04:05:46;102357.00;;;11.71;99.21
11440;BME280;5776;51.814;4.510;2023-05-02T04:08:12;102356.75;;;11.73;99.17
11440;BME280;5776;51.814;4.510;2023-05-02T04:10:39;102357.00;;;11.71;98.95
11440;BME280;5776;51.814;4.510;2023-05-02T04:13:05;102354.53;;;11.70;98.21
11440;BME280;5776;51.814;4.510;2023-05-02T04:15:31;102360.81;;;11.70;98.52
11440;BME280;5776;51.814;4.510;2023-05-02T04:17:57;102366.25;;;11.70;98.96
11440;BME280;5776;51.814;4.510;2023-05-02T04:20:23;102359.16;;;11.69;99.28
11440;BME280;5776;51.814;4.510;2023-05-02T04:22:49;102372.47;;;11.65;98.84
11440;BME280;5776;51.814;4.510;2023-05-02T04:25:15;102382.53;;;11.65;99.01
11440;BME280;5776;51.814;4.510;2023-05-02T04:27:42;102375.47;;;11.64;98.87
11440;BME280;5776;51.814;4.510;2023-05-02T04:30:08;102385.25;;;11.65;98.88
11440;BME280;5776;51.814;4.510;2023-05-02T04:32:38;102381.19;;;11.67;98.44
11440;BME280;5776;51.814;4.510;2023-05-02T04:35:05;102386.06;;;11.65;99.01
11440;BME280;5776;51.814;4.510;2023-05-02T04:37:31;102397.22;;;11.64;99.01
11440;BME280;5776;51.814;4.510;2023-05-02T04:39:57;102397.47;;;11.62;98.81
11440;BME280;5776;51.814;4.510;2023-05-02T04:42:23;102399.38;;;11.62;98.28
11440;BME280;5776;51.814;4.510;2023-05-02T04:44:49;102409.69;;;11.60;98.36
11440;BME280;5776;51.814;4.510;2023-05-02T04:47:15;102399.34;;;11.57;98.20
11440;BME280;5776;51.814;4.510;2023-05-02T04:49:42;102407.50;;;11.57;98.39
11440;BME280;5776;51.814;4.510;2023-05-02T04:52:09;102412.94;;;11.57;98.00
11440;BME280;5776;51.814;4.510;2023-05-02T04:54:35;102419.44;;;11.56;97.69
11440;BME280;5776;51.814;4.510;2023-05-02T04:57:01;102418.06;;;11.53;98.19
11440;BME280;5776;51.814;4.510;2023-05-02T04:59:28;102425.16;;;11.54;98.04
11440;BME280;5776;51.814;4.510;2023-05-02T05:01:55;102429.78;;;11.54;97.75
11440;BME280;5776;51.814;4.510;2023-05-02T05:04:21;102427.31;;;11.52;97.86
11440;BME280;5776;51.814;4.510;2023-05-02T05:06:49;102424.81;;;11.51;97.86
11440;BME280;5776;51.814;4.510;2023-05-02T05:09:15;102430.25;;;11.51;97.54
11440;BME280;5776;51.814;4.510;2023-05-02T05:11:41;102443.38;;;11.54;97.57
11440;BME280;5776;51.814;4.510;2023-05-02T05:14:11;102440.66;;;11.54;97.28
11440;BME280;5776;51.814;4.510;2023-05-02T05:16:36;102438.19;;;11.52;97.38
11440;BME280;5776;51.814;4.510;2023-05-02T05:19:02;102450.69;;;11.53;96.78
11440;BME280;5776;51.814;4.510;2023-05-02T05:21:29;102445.53;;;11.52;96.94
11440;BME280;5776;51.814;4.510;2023-05-02T05:23:55;102450.41;;;11.50;96.82
11440;BME280;5776;51.814;4.510;2023-05-02T05:26:21;102451.22;;;11.50;97.05
11440;BME280;5776;51.814;4.510;2023-05-02T05:28:49;102452.88;;;11.51;97.08
11440;BME280;5776;51.814;4.510;2023-05-02T05:31:16;102457.47;;;11.51;96.80
11440;BME280;5776;51.814;4.510;2023-05-02T05:33:41;102455.84;;;11.50;96.83
11440;BME280;5776;51.814;4.510;2023-05-02T05:36:09;102461.28;;;11.50;97.37
11440;BME280;5776;51.814;4.510;2023-05-02T05:38:36;102471.34;;;11.49;97.04
11440;BME280;5776;51.814;4.510;2023-05-02T05:41:03;102470.03;;;11.52;96.87
11440;BME280;5776;51.814;4.510;2023-05-02T05:43:30;102476.78;;;11.49;96.48
11440;BME280;5776;51.814;4.510;2023-05-02T05:45:56;102474.88;;;11.50;96.66
11440;BME280;5776;51.814;4.510;2023-05-02T05:48:22;102483.88;;;11.50;96.97
11440;BME280;5776;51.814;4.510;2023-05-02T05:50:48;102488.25;;;11.51;96.82
11440;BME280;5776;51.814;4.510;2023-05-02T05:53:17;102497.22;;;11.52;97.00
11440;BME280;5776;51.814;4.510;2023-05-02T05:55:43;102490.97;;;11.51;96.99
11440;BME280;5776;51.814;4.510;2023-05-02T05:58:09;102499.94;;;11.52;97.40
11440;BME280;5776;51.814;4.510;2023-05-02T06:00:38;102505.63;;;11.50;97.06
11440;BME280;5776;51.814;4.510;2023-05-02T06:03:05;102512.75;;;11.51;97.43
11440;BME280;5776;51.814;4.510;2023-05-02T06:05:31;102517.34;;;11.51;96.99
11440;BME280;5776;51.814;4.510;2023-05-02T06:07:58;102511.06;;;11.50;97.04
11440;BME280;5776;51.814;4.510;2023-05-02T06:10:24;102514.06;;;11.49;96.58
11440;BME280;5776;51.814;4.510;2023-05-02T06:12:50;102534.16;;;11.48;96.95
11440;BME280;5776;51.814;4.510;2023-05-02T06:15:16;102537.28;;;11.56;97.61
11440;BME280;5776;51.814;4.510;2023-05-02T06:17:42;102539.22;;;11.61;97.83
11440;BME280;5776;51.814;4.510;2023-05-02T06:20:08;102537.59;;;11.60;98.47
11440;BME280;5776;51.814;4.510;2023-05-02T06:22:35;102540.06;;;11.61;98.07
11440;BME280;5776;51.814;4.510;2023-05-02T06:25:01;102548.25;;;11.61;97.91
11440;BME280;5776;51.814;4.510;2023-05-02T06:27:29;102544.66;;;11.61;98.03
11440;BME280;5776;51.814;4.510;2023-05-02T06:29:55;102558.03;;;11.62;98.56
11440;BME280;5776;51.814;4.510;2023-05-02T06:32:21;102556.94;;;11.63;98.37
11440;BME280;5776;51.814;4.510;2023-05-02T06:34:47;102562.38;;;11.63;98.43
11440;BME280;5776;51.814;4.510;2023-05-02T06:37:13;102567.00;;;11.63;98.51
11440;BME280;5776;51.814;4.510;2023-05-02T06:39:39;102565.38;;;11.62;98.23
11440;BME280;5776;51.814;4.510;2023-05-02T06:42:05;102570.75;;;11.57;97.29
11440;BME280;5776;51.814;4.510;2023-05-02T06:44:31;102572.81;;;11.28;93.33
11440;BME280;5776;51.814;4.510;2023-05-02T06:46:57;102575.06;;;11.14;92.20
11440;BME280;5776;51.814;4.510;2023-05-02T06:49:24;102575.22;;;11.07;92.63
11440;BME280;5776;51.814;4.510;2023-05-02T06:51:50;102578.25;;;11.11;93.64
11440;BME280;5776;51.814;4.510;2023-05-02T06:54:15;102586.09;;;11.07;91.30
11440;BME280;5776;51.814;4.510;2023-05-02T06:56:42;102588.97;;;11.17;93.56
11440;BME280;5776;51.814;4.510;2023-05-02T06:59:08;102588.41;;;11.15;94.19
11440;BME280;5776;51.814;4.510;2023-05-02T07:01:34;102593.94;;;11.03;92.57
11440;BME280;5776;51.814;4.510;2023-05-02T07:04:00;102599.19;;;10.93;91.68
11440;BME280;5776;51.814;4.510;2023-05-02T07:06:29;102598.53;;;11.03;92.11
11440;BME280;5776;51.814;4.510;2023-05-02T07:08:55;102593.59;;;11.00;92.28
11440;BME280;5776;51.814;4.510;2023-05-02T07:11:21;102600.72;;;11.01;91.45
11440;BME280;5776;51.814;4.510;2023-05-02T07:13:49;102597.41;;;10.99;91.52
11440;BME280;5776;51.814;4.510;2023-05-02T07:16:14;102612.06;;;10.98;92.04
11440;BME280;5776;51.814;4.510;2023-05-02T07:18:41;102605.97;;;10.91;91.79
11440;BME280;5776;51.814;4.510;2023-05-02T07:21:07;102609.53;;;10.91;91.94
11440;BME280;5776;51.814;4.510;2023-05-02T07:23:33;102607.84;;;10.90;91.89
11440;BME280;5776;51.814;4.510;2023-05-02T07:25:59;102617.25;;;10.82;91.18
11440;BME280;5776;51.814;4.510;2023-05-02T07:28:25;102615.34;;;10.83;91.34
11440;BME280;5776;51.814;4.510;2023-05-02T07:30:51;102622.09;;;10.80;90.80
11440;BME280;5776;51.814;4.510;2023-05-02T07:33:17;102628.94;;;10.83;90.90
11440;BME280;5776;51.814;4.510;2023-05-02T07:35:43;102628.56;;;10.91;91.25
11440;BME280;5776;51.814;4.510;2023-05-02T07:38:09;102630.78;;;10.94;89.94
11440;BME280;5776;51.814;4.510;2023-05-02T07:40:35;102628.13;;;10.99;90.57
11440;BME280;5776;51.814;4.510;2023-05-02T07:43:01;102633.72;;;11.10;90.64
11440;BME280;5776;51.814;4.510;2023-05-02T07:45:27;102639.09;;;11.21;91.99
11440;BME280;5776;51.814;4.510;2023-05-02T07:47:52;102638.91;;;11.28;92.01
11440;BME280;5776;51.814;4.510;2023-05-02T07:50:18;102642.72;;;11.27;92.47
11440;BME280;5776;51.814;4.510;2023-05-02T07:52:44;102639.09;;;11.21;91.05
11440;BME280;5776;51.814;4.510;2023-05-02T07:55:10;102642.19;;;11.13;88.44
11440;BME280;5776;51.814;4.510;2023-05-02T07:57:37;102652.44;;;11.06;89.10
11440;BME280;5776;51.814;4.510;2023-05-02T08:00:04;102647.00;;;11.06;88.88
11440;BME280;5776;51.814;4.510;2023-05-02T08:02:35;102654.81;;;11.19;89.16
11440;BME280;5776;51.814;4.510;2023-05-02T08:05:03;102646.16;;;11.22;89.62
11440;BME280;5776;51.814;4.510;2023-05-02T08:07:31;102652.41;;;11.23;89.21
11440;BME280;5776;51.814;4.510;2023-05-02T08:09:57;102652.56;;;11.33;92.28
11440;BME280;5776;51.814;4.510;2023-05-02T08:12:23;102659.41;;;11.36;90.45
11440;BME280;5776;51.814;4.510;2023-05-02T08:14:49;102651.09;;;11.25;89.54
11440;BME280;5776;51.814;4.510;2023-05-02T08:17:15;102660.50;;;11.18;90.57
11440;BME280;5776;51.814;4.510;2023-05-02T08:19:40;102653.59;;;11.27;88.50
11440;BME280;5776;51.814;4.510;2023-05-02T08:22:06;102667.41;;;11.25;88.67
11440;BME280;5776;51.814;4.510;2023-05-02T08:24:32;102677.16;;;11.21;86.36
11440;BME280;5776;51.814;4.510;2023-05-02T08:26:58;102679.31;;;11.19;87.72
11440;BME280;5776;51.814;4.510;2023-05-02T08:29:24;102682.53;;;11.16;88.76
11440;BME280;5776;51.814;4.510;2023-05-02T08:31:50;102681.22;;;11.19;88.73
11440;BME280;5776;51.814;4.510;2023-05-02T08:34:16;102688.78;;;11.17;88.84
11440;BME280;5776;51.814;4.510;2023-05-02T08:36:42;102682.75;;;11.15;88.90
11440;BME280;5776;51.814;4.510;2023-05-02T08:39:08;102686.31;;;11.15;87.89
11440;BME280;5776;51.814;4.510;2023-05-02T08:41:34;102689.84;;;11.16;88.63
11440;BME280;5776;51.814;4.510;2023-05-02T08:44:01;102702.69;;;11.20;88.71
11440;BME280;5776;51.814;4.510;2023-05-02T08:46:27;102707.00;;;11.16;88.00
11440;BME280;5776;51.814;4.510;2023-05-02T08:48:54;102708.06;;;11.15;88.45
11440;BME280;5776;51.814;4.510;2023-05-02T08:51:23;102699.56;;;11.12;85.53
11440;BME280;5776;51.814;4.510;2023-05-02T08:53:51;102708.97;;;11.21;86.83
11440;BME280;5776;51.814;4.510;2023-05-02T08:56:16;102707.47;;;11.30;89.05
11440;BME280;5776;51.814;4.510;2023-05-02T08:58:42;102716.88;;;11.39;90.88
11440;BME280;5776;51.814;4.510;2023-05-02T09:01:12;102714.41;;;11.38;88.79
11440;BME280;5776;51.814;4.510;2023-05-02T09:03:42;102713.28;;;11.34;88.08
11440;BME280;5776;51.814;4.510;2023-05-02T09:06:11;102721.81;;;11.25;85.70
11440;BME280;5776;51.814;4.510;2023-05-02T09:08:38;102722.75;;;11.31;87.28
11440;BME280;5776;51.814;4.510;2023-05-02T09:11:06;102719.53;;;11.34;87.89
11440;BME280;5776;51.814;4.510;2023-05-02T09:13:36;102722.81;;;11.19;83.70
11440;BME280;5776;51.814;4.510;2023-05-02T09:16:16;102719.75;;;11.33;89.79
11440;BME280;5776;51.814;4.510;2023-05-02T09:18:49;102732.72;;;11.42;90.59
11440;BME280;5776;51.814;4.510;2023-05-02T09:21:18;102723.47;;;11.43;88.35
11440;BME280;5776;51.814;4.510;2023-05-02T09:23:49;102734.84;;;11.40;88.76
11440;BME280;5776;51.814;4.510;2023-05-02T09:26:16;102736.75;;;11.40;88.20
11440;BME280;5776;51.814;4.510;2023-05-02T09:28:50;102722.84;;;11.36;84.47
11440;BME280;5776;51.814;4.510;2023-05-02T09:31:21;102729.59;;;11.34;86.18
11440;BME280;5776;51.814;4.510;2023-05-02T09:33:48;102733.78;;;11.41;89.70
11440;BME280;5776;51.814;4.510;2023-05-02T09:36:15;102737.00;;;11.55;91.32
11440;BME280;5776;51.814;4.510;2023-05-02T09:38:42;102746.91;;;11.61;90.48
11440;BME280;5776;51.814;4.510;2023-05-02T09:41:09;102747.44;;;11.63;90.04
11440;BME280;5776;51.814;4.510;2023-05-02T09:43:36;102748.03;;;11.65;90.67
11440;BME280;5776;51.814;4.510;2023-05-02T09:46:04;102750.84;;;11.71;90.01
11440;BME280;5776;51.814;4.510;2023-05-02T09:48:32;102752.00;;;11.75;90.54
11440;BME280;5776;51.814;4.510;2023-05-02T09:50:58;102753.97;;;11.79;90.17
11440;BME280;5776;51.814;4.510;2023-05-02T09:53:25;102750.63;;;11.89;89.46
11440;BME280;5776;51.814;4.510;2023-05-02T09:55:59;102761.56;;;11.94;87.98
11440;BME280;5776;51.814;4.510;2023-05-02T09:58:26;102756.78;;;12.01;88.63
11440;BME280;5776;51.814;4.510;2023-05-02T10:00:51;102747.84;;;12.06;87.87
11440;BME280;5776;51.814;4.510;2023-05-02T10:03:18;102743.34;;;11.95;88.14
11440;BME280;5776;51.814;4.510;2023-05-02T10:05:45;102745.25;;;11.94;88.01
11440;BME280;5776;51.814;4.510;2023-05-02T10:08:12;102750.00;;;12.04;86.57
11440;BME280;5776;51.814;4.510;2023-05-02T10:10:40;102744.34;;;12.10;86.59
11440;BME280;5776;51.814;4.510;2023-05-02T10:13:12;102746.63;;;12.19;86.42
11440;BME280;5776;51.814;4.510;2023-05-02T10:15:52;102756.22;;;12.21;85.89
11440;BME280;5776;51.814;4.510;2023-05-02T10:18:23;102757.22;;;12.15;85.00
11440;BME280;5776;51.814;4.510;2023-05-02T10:21:19;102754.25;;;12.17;86.65
11440;BME280;5776;51.814;4.510;2023-05-02T10:23:49;102757.06;;;12.22;86.84
11440;BME280;5776;51.814;4.510;2023-05-02T10:26:18;102765.59;;;12.30;86.30
11440;BME280;5776;51.814;4.510;2023-05-02T10:28:46;102759.09;;;12.31;86.30
11440;BME280;5776;51.814;4.510;2023-05-02T10:31:13;102765.28;;;12.27;86.25
11440;BME280;5776;51.814;4.510;2023-05-02T10:33:40;102759.63;;;12.33;85.75
11440;BME280;5776;51.814;4.510;2023-05-02T10:36:08;102757.94;;;12.27;86.03
11440;BME280;5776;51.814;4.510;2023-05-02T10:38:35;102747.34;;;12.31;86.12
11440;BME280;5776;51.814;4.510;2023-05-02T10:41:06;102755.63;;;12.41;86.42
11440;BME280;5776;51.814;4.510;2023-05-02T10:43:34;102751.09;;;12.47;85.91
11440;BME280;5776;51.814;4.510;2023-05-02T10:46:01;102760.59;;;12.44;86.27
11440;BME280;5776;51.814;4.510;2023-05-02T10:48:30;102763.63;;;12.48;85.49
11440;BME280;5776;51.814;4.510;2023-05-02T10:50:58;102753.63;;;12.53;85.03
11440;BME280;5776;51.814;4.510;2023-05-02T10:53:30;102757.19;;;12.54;86.49
11440;BME280;5776;51.814;4.510;2023-05-02T10:58:38;102755.59;;;12.58;84.98
11440;BME280;5776;51.814;4.510;2023-05-02T11:01:31;102764.63;;;12.64;85.23
11440;BME280;5776;51.814;4.510;2023-05-02T11:06:29;102769.91;;;12.70;85.55
11440;BME280;5776;51.814;4.510;2023-05-02T11:11:46;102769.72;;;12.77;85.11
11440;BME280;5776;51.814;4.510;2023-05-02T11:19:26;102759.91;;;12.81;85.04
11440;BME280;5776;51.814;4.510;2023-05-02T11:22:13;102763.53;;;12.87;84.21
11440;BME280;5776;51.814;4.510;2023-05-02T11:24:42;102765.19;;;12.88;84.29
11440;BME280;5776;51.814;4.510;2023-05-02T11:32:24;102772.91;;;12.96;83.05
11440;BME280;5776;51.814;4.510;2023-05-02T11:34:51;102766.63;;;12.95;81.48
11440;BME280;5776;51.814;4.510;2023-05-02T11:37:19;102774.84;;;13.01;83.41
11440;BME280;5776;51.814;4.510;2023-05-02T11:39:45;102775.66;;;13.01;82.01
11440;BME280;5776;51.814;4.510;2023-05-02T11:42:28;102781.19;;;13.06;83.63
11440;BME280;5776;51.814;4.510;2023-05-02T11:44:58;102777.97;;;13.09;83.17
11440;BME280;5776;51.814;4.510;2023-05-02T11:47:25;102778.25;;;13.13;83.64
11440;BME280;5776;51.814;4.510;2023-05-02T11:49:54;102780.69;;;13.09;83.18
11440;BME280;5776;51.814;4.510;2023-05-02T11:52:22;102786.69;;;13.11;82.85
11440;BME280;5776;51.814;4.510;2023-05-02T11:54:48;102794.91;;;13.16;83.42
11440;BME280;5776;51.814;4.510;2023-05-02T11:57:14;102796.31;;;13.19;83.53
11440;BME280;5776;51.814;4.510;2023-05-02T11:59:54;102797.69;;;13.22;83.70
11440;BME280;5776;51.814;4.510;2023-05-02T12:02:41;102791.19;;;13.23;83.98
11440;BME280;5776;51.814;4.510;2023-05-02T12:05:08;102794.72;;;13.23;83.75
11440;BME280;5776;51.814;4.510;2023-05-02T12:10:08;102804.41;;;13.36;82.43
11440;BME280;5776;51.814;4.510;2023-05-02T12:12:35;102801.97;;;13.34;82.08
11440;BME280;5776;51.814;4.510;2023-05-02T12:15:05;102798.91;;;13.31;82.14
11440;BME280;5776;51.814;4.510;2023-05-02T12:17:33;102800.81;;;13.30;83.81
11440;BME280;5776;51.814;4.510;2023-05-02T12:20:03;102792.38;;;13.32;82.87
11440;BME280;5776;51.814;4.510;2023-05-02T12:22:30;102798.38;;;13.34;82.60
11440;BME280;5776;51.814;4.510;2023-05-02T12:24:56;102792.69;;;13.35;83.60
11440;BME280;5776;51.814;4.510;2023-05-02T12:27:22;102795.97;;;13.37;83.86
11440;BME280;5776;51.814;4.510;2023-05-02T12:29:48;102806.09;;;13.37;83.93
11440;BME280;5776;51.814;4.510;2023-05-02T12:32:17;102807.72;;;13.38;84.30
11440;BME280;5776;51.814;4.510;2023-05-02T12:34:51;102802.50;;;13.36;83.79
11440;BME280;5776;51.814;4.510;2023-05-02T12:37:24;102809.06;;;13.35;84.21
11440;BME280;5776;51.814;4.510;2023-05-02T12:39:51;102806.09;;;13.37;84.11
11440;BME280;5776;51.814;4.510;2023-05-02T12:42:19;102805.50;;;13.35;84.68
11440;BME280;5776;51.814;4.510;2023-05-02T12:44:47;102807.16;;;13.36;84.62
11440;BME280;5776;51.814;4.510;2023-05-02T12:47:15;102808.75;;;13.32;84.51
11440;BME280;5776;51.814;4.510;2023-05-02T12:49:52;102815.84;;;13.33;85.32
11440;BME280;5776;51.814;4.510;2023-05-02T12:52:45;102810.69;;;13.36;84.48
11440;BME280;5776;51.814;4.510;2023-05-02T12:55:19;102819.78;;;13.42;83.43
11440;BME280;5776;51.814;4.510;2023-05-02T12:57:45;102827.44;;;13.45;83.44
11440;BME280;5776;51.814;4.510;2023-05-02T13:00:12;102812.69;;;13.46;83.53
11440;BME280;5776;51.814;4.510;2023-05-02T13:02:41;102825.28;;;13.47;84.55
11440;BME280;5776;51.814;4.510;2023-05-02T13:05:17;102829.63;;;13.48;83.72
11440;BME280;5776;51.814;4.510;2023-05-02T13:07:43;102829.63;;;13.48;82.92
11440;BME280;5776;51.814;4.510;2023-05-02T13:10:09;102828.81;;;13.48;83.75
11440;BME280;5776;51.814;4.510;2023-05-02T13:12:39;102826.63;;;13.45;82.51
11440;BME280;5776;51.814;4.510;2023-05-02T13:15:07;102828.56;;;13.49;83.22
11440;BME280;5776;51.814;4.510;2023-05-02T13:17:33;102836.25;;;13.52;82.88
11440;BME280;5776;51.814;4.510;2023-05-02T13:19:59;102827.53;;;13.55;83.52
11440;BME280;5776;51.814;4.510;2023-05-02T13:22:27;102823.69;;;13.56;84.95
11440;BME280;5776;51.814;4.510;2023-05-02T13:24:53;102816.31;;;13.52;84.60
11440;BME280;5776;51.814;4.510;2023-05-02T13:27:22;102828.88;;;13.53;85.17
11440;BME280;5776;51.814;4.510;2023-05-02T13:29:48;102830.75;;;13.47;84.69
11440;BME280;5776;51.814;4.510;2023-05-02T13:32:14;102839.16;;;13.46;84.17
11440;BME280;5776;51.814;4.510;2023-05-02T13:34:40;102839.31;;;13.34;84.40
11440;BME280;5776;51.814;4.510;2023-05-02T13:37:05;102835.25;;;13.36;84.32
11440;BME280;5776;51.814;4.510;2023-05-02T13:39:32;102838.03;;;13.42;83.43
11440;BME280;5776;51.814;4.510;2023-05-02T13:41:58;102837.25;;;13.46;83.62